Irish Green, Utah
Current Conditions -  °F | °C
As of 10:15 PM on Monday 20 Oct 2014 (Local Time) from KBDG Reporting Station
Clear Clear  
Wind Chill: 56°   Ceiling: Unl
Heat Index: 56°   Visibility: 10mi
Dew Point: 39°   Wind: 7mph
Humidity: 52%   Direction: 90°E
Pressure: 30.2"   Gusts: NA
Location:  37.6208°N, 109.479°W
Report Text: KBDG 210415Z AUTO 09006KT 10SM CLR 14/04 A3020 RMK AO1 T01350038
Loading
Personal Weather Stations






























Interactive Weather Map
Tropical Storm Tracking
New forecast layout! Learn more

10-Day Weather Forecast

Advertisements
Track Severe Weather on mobile